Time;durP1;ratioP1;P1;durP2;ratioP2;P2;SDS_P1;SDS_P2;PMS_P1;PMS_P2;Temp;Humidity;BMP_temperature;BMP_pressure;BME280_temperature;BME280_humidity;BME280_pressure;Samples;Min_cycle;Max_cycle;Signal;HPM_P1;HPM_P2
2022/09/24 00:01:30;;;;;;;3.05;2.22;;;14.50;99.90;;;;;;5020628;28;20177;-70
2022/09/24 00:04:00;;;;;;;4.00;2.60;;;14.60;99.90;;;;;;5023146;28;20185;-71
2022/09/24 00:06:32;;;;;;;3.97;2.78;;;14.50;99.90;;;;;;5021086;28;20208;-71
2022/09/24 00:08:58;;;;;;;3.20;2.15;;;14.50;99.90;;;;;;5011753;28;20257;-70
2022/09/24 00:11:27;;;;;;;3.70;2.42;;;14.50;99.90;;;;;;5020950;28;20210;-71
2022/09/24 00:13:54;;;;;;;3.08;2.40;;;14.50;99.90;;;;;;5019107;28;20202;-72
2022/09/24 00:16:22;;;;;;;3.63;2.65;;;14.50;99.90;;;;;;5010643;28;20186;-71
2022/09/24 00:18:49;;;;;;;5.30;2.70;;;14.50;99.90;;;;;;5020475;28;20182;-71
2022/09/24 00:21:18;;;;;;;2.55;2.13;;;14.50;99.90;;;;;;5020478;28;20190;-71
2022/09/24 00:23:47;;;;;;;3.08;2.63;;;14.50;99.90;;;;;;5022470;28;20181;-71
2022/09/24 00:29:02;;;;;;;3.13;2.28;;;14.50;99.90;;;;;;5037816;28;20247;-73
2022/09/24 00:31:28;;;;;;;2.85;2.35;;;14.50;99.90;;;;;;5020537;28;20174;-72
2022/09/24 00:33:56;;;;;;;2.67;2.20;;;14.50;99.90;;;;;;5012035;28;20187;-71
2022/09/24 00:36:22;;;;;;;2.88;2.25;;;14.50;99.90;;;;;;5006591;28;20407;-71
2022/09/24 00:38:53;;;;;;;3.63;2.25;;;14.50;99.90;;;;;;5020029;28;20207;-71
2022/09/24 00:41:22;;;;;;;5.00;2.20;;;14.50;99.90;;;;;;5019798;28;20183;-72
2022/09/24 00:43:48;;;;;;;2.50;2.05;;;14.50;99.90;;;;;;5014824;28;20186;-71
2022/09/24 00:46:24;;;;;;;3.63;2.00;;;14.50;99.90;;;;;;5016675;28;20182;-71
2022/09/24 00:48:53;;;;;;;2.60;1.98;;;14.50;99.90;;;;;;5014906;28;21624;-71
2022/09/24 00:51:21;;;;;;;3.95;2.10;;;14.40;99.90;;;;;;5021361;28;20196;-72
2022/09/24 00:53:54;;;;;;;2.97;2.03;;;14.40;99.90;;;;;;5021188;28;20185;-70
2022/09/24 00:56:22;;;;;;;3.97;2.10;;;14.40;99.90;;;;;;5019230;28;20204;-71
2022/09/24 00:58:55;;;;;;;2.97;2.40;;;14.30;99.90;;;;;;5021171;28;20256;-67
2022/09/24 01:01:22;;;;;;;2.88;2.03;;;14.30;99.90;;;;;;5020464;28;20205;-71
2022/09/24 01:03:49;;;;;;;2.70;2.20;;;14.30;99.90;;;;;;5020688;28;20292;-68
2022/09/24 01:06:15;;;;;;;4.13;2.20;;;14.20;99.90;;;;;;5023379;28;20185;-71
2022/09/24 01:08:44;;;;;;;3.38;1.98;;;14.20;99.90;;;;;;5027461;28;20170;-71
2022/09/24 01:11:24;;;;;;;3.58;2.30;;;14.20;99.90;;;;;;5021240;28;20289;-71
2022/09/24 01:14:12;;;;;;;2.33;2.10;;;14.20;99.90;;;;;;5019581;28;20191;-71
2022/09/24 01:17:07;;;;;;;3.67;2.20;;;14.10;99.90;;;;;;5024552;28;20196;-71
2022/09/24 01:19:51;;;;;;;2.63;2.10;;;14.10;99.90;;;;;;5017743;28;20214;-72
2022/09/24 01:22:19;;;;;;;3.35;2.20;;;14.10;99.90;;;;;;5012128;28;20183;-71
2022/09/24 01:25:08;;;;;;;2.60;2.08;;;14.00;99.90;;;;;;5019690;28;20177;-71
2022/09/24 01:27:43;;;;;;;3.45;1.73;;;14.00;99.90;;;;;;5035956;28;20177;-70
2022/09/24 01:30:15;;;;;;;3.40;2.00;;;14.00;99.90;;;;;;5019496;28;20197;-71
2022/09/24 01:33:02;;;;;;;2.38;2.03;;;13.90;99.90;;;;;;5016786;28;20202;-71
2022/09/24 01:35:38;;;;;;;2.92;2.08;;;13.90;99.90;;;;;;5012510;28;20177;-71
2022/09/24 01:38:07;;;;;;;2.75;1.90;;;13.90;99.90;;;;;;5026212;28;20202;-69
2022/09/24 01:40:35;;;;;;;2.47;1.92;;;13.80;99.90;;;;;;5034726;28;20228;-70
2022/09/24 01:43:03;;;;;;;4.20;2.03;;;13.80;99.90;;;;;;5034944;28;20184;-70
2022/09/24 01:45:30;;;;;;;2.70;2.00;;;13.80;99.90;;;;;;5033286;28;20175;-69
2022/09/24 01:48:00;;;;;;;2.47;2.05;;;13.80;99.90;;;;;;5032332;28;20181;-70
2022/09/24 01:50:31;;;;;;;2.50;1.95;;;13.80;99.90;;;;;;5033925;28;20187;-69
2022/09/24 01:53:22;;;;;;;3.13;2.08;;;13.70;99.90;;;;;;5031753;28;20183;-70
2022/09/24 01:55:53;;;;;;;2.88;2.00;;;13.70;99.90;;;;;;5027598;28;20229;-70
2022/09/24 01:58:31;;;;;;;2.65;1.92;;;13.70;99.90;;;;;;5033156;28;20204;-70
2022/09/24 02:01:04;;;;;;;2.55;2.08;;;13.70;99.90;;;;;;5031073;28;20178;-69
2022/09/24 02:03:38;;;;;;;2.38;1.85;;;13.70;99.90;;;;;;5035628;28;20174;-70
2022/09/24 02:06:11;;;;;;;2.70;2.10;;;13.70;99.90;;;;;;5034647;28;20184;-70
2022/09/24 02:08:41;;;;;;;2.30;2.10;;;13.70;99.90;;;;;;5033185;28;20198;-71
2022/09/24 02:11:10;;;;;;;3.63;2.03;;;13.70;99.90;;;;;;5036279;28;20177;-70
2022/09/24 02:13:46;;;;;;;2.45;2.08;;;13.60;99.90;;;;;;5035701;28;20198;-69
2022/09/24 02:16:15;;;;;;;2.90;2.08;;;13.70;99.90;;;;;;5036207;28;20244;-70
2022/09/24 02:18:46;;;;;;;2.25;1.98;;;13.70;99.90;;;;;;5036301;28;20173;-70
2022/09/24 02:21:15;;;;;;;2.13;1.90;;;13.60;99.90;;;;;;5034534;28;20201;-68
2022/09/24 02:23:50;;;;;;;2.30;2.10;;;13.70;99.90;;;;;;5034542;28;20213;-70
2022/09/24 02:26:15;;;;;;;2.92;2.20;;;13.60;99.90;;;;;;5036208;28;20177;-70
2022/09/24 02:28:44;;;;;;;2.55;2.03;;;13.60;99.90;;;;;;5033229;28;20217;-70
2022/09/24 02:31:47;;;;;;;2.67;2.10;;;13.60;99.90;;;;;;5030550;28;20197;-70
2022/09/24 02:34:22;;;;;;;3.08;1.98;;;13.60;99.90;;;;;;4995950;28;20194;-70
2022/09/24 02:37:13;;;;;;;2.10;1.73;;;13.60;99.90;;;;;;5019903;28;20204;-71
2022/09/24 02:39:39;;;;;;;2.20;1.98;;;13.60;99.90;;;;;;5027459;28;20213;-71
2022/09/24 02:42:09;;;;;;;2.67;2.08;;;13.60;99.90;;;;;;5035490;28;20170;-69
2022/09/24 02:44:37;;;;;;;3.75;1.85;;;13.50;99.90;;;;;;5032516;28;20236;-70
2022/09/24 02:47:03;;;;;;;2.90;1.55;;;13.60;99.90;;;;;;5036518;28;20173;-71
2022/09/24 02:49:29;;;;;;;4.03;1.98;;;13.50;99.90;;;;;;5032057;28;20162;-70
2022/09/24 02:52:00;;;;;;;2.08;1.88;;;13.50;99.90;;;;;;5032381;28;20212;-71
2022/09/24 02:54:25;;;;;;;2.05;1.85;;;13.40;99.90;;;;;;5039863;28;20181;-70
2022/09/24 02:56:51;;;;;;;2.67;1.75;;;13.40;99.90;;;;;;5035283;28;20190;-70
2022/09/24 02:59:19;;;;;;;2.88;2.05;;;13.40;99.90;;;;;;5046485;28;20205;-70
2022/09/24 03:01:45;;;;;;;2.78;1.92;;;13.40;99.90;;;;;;5031244;28;20171;-71
2022/09/24 03:04:13;;;;;;;2.97;1.85;;;13.40;99.90;;;;;;5031886;28;20201;-71
2022/09/24 03:06:39;;;;;;;2.60;1.85;;;13.30;99.90;;;;;;5026761;28;20202;-70
2022/09/24 03:09:05;;;;;;;3.15;1.90;;;13.30;99.90;;;;;;5030915;28;20222;-70
2022/09/24 03:11:31;;;;;;;2.20;1.98;;;13.30;99.90;;;;;;5034324;28;20193;-69
2022/09/24 03:14:02;;;;;;;2.67;1.92;;;13.30;99.90;;;;;;5034955;28;20233;-71
2022/09/24 03:16:29;;;;;;;3.10;2.00;;;13.30;99.90;;;;;;5031400;28;20194;-71
2022/09/24 03:18:54;;;;;;;2.20;1.85;;;13.30;99.90;;;;;;5028659;28;20292;-69
2022/09/24 03:21:23;;;;;;;2.47;1.98;;;13.30;99.90;;;;;;5039370;28;20222;-70
2022/09/24 03:23:48;;;;;;;1.77;1.58;;;13.30;99.90;;;;;;5038025;28;20201;-70
2022/09/24 03:26:16;;;;;;;3.08;1.90;;;13.30;99.90;;;;;;5037674;28;20208;-71
2022/09/24 03:28:44;;;;;;;2.42;2.00;;;13.30;99.90;;;;;;5035310;28;20203;-70
2022/09/24 03:31:10;;;;;;;2.38;2.00;;;13.30;99.90;;;;;;5034543;28;20194;-70
2022/09/24 03:33:41;;;;;;;2.15;1.85;;;13.30;99.90;;;;;;5037257;28;20281;-69
2022/09/24 03:36:08;;;;;;;3.22;1.98;;;13.30;99.90;;;;;;5053922;28;20194;-71
2022/09/24 03:38:34;;;;;;;2.20;2.00;;;13.40;99.90;;;;;;5034758;28;20204;-70
2022/09/24 03:41:06;;;;;;;2.17;1.85;;;13.30;99.90;;;;;;5019215;28;20213;-71
2022/09/24 03:43:34;;;;;;;2.63;1.80;;;13.40;99.90;;;;;;5035610;28;20181;-70
2022/09/24 03:46:00;;;;;;;3.20;1.80;;;13.40;99.90;;;;;;5037782;28;20265;-70
2022/09/24 03:48:31;;;;;;;2.67;2.13;;;13.40;99.90;;;;;;5038339;28;20205;-69
2022/09/24 03:51:06;;;;;;;3.92;1.92;;;13.40;99.90;;;;;;5037262;28;20185;-71
2022/09/24 03:53:31;;;;;;;3.65;1.83;;;13.40;99.90;;;;;;5032753;28;20207;-71
2022/09/24 03:55:58;;;;;;;2.13;1.88;;;13.40;99.90;;;;;;5036753;28;20273;-70
2022/09/24 03:58:30;;;;;;;1.92;1.80;;;13.40;99.90;;;;;;5037852;28;20174;-70
2022/09/24 04:00:56;;;;;;;3.72;2.30;;;13.50;99.90;;;;;;5037857;28;20198;-70
2022/09/24 04:03:22;;;;;;;2.45;1.90;;;13.50;99.90;;;;;;5034517;28;20260;-71
2022/09/24 04:05:53;;;;;;;2.35;2.00;;;13.50;99.90;;;;;;5023548;28;20249;-71
2022/09/24 04:08:20;;;;;;;2.10;1.85;;;13.50;99.90;;;;;;5055530;28;20208;-70
2022/09/24 04:10:47;;;;;;;3.40;2.20;;;13.50;99.90;;;;;;5034001;28;20195;-69
2022/09/24 04:13:16;;;;;;;3.95;2.38;;;13.50;99.90;;;;;;5023048;28;20170;-70
2022/09/24 04:15:44;;;;;;;2.95;1.98;;;13.50;99.90;;;;;;5037832;28;20174;-70
2022/09/24 04:18:12;;;;;;;2.50;1.90;;;13.50;99.90;;;;;;5038956;28;20198;-71
2022/09/24 04:20:42;;;;;;;3.45;2.17;;;13.50;99.90;;;;;;5032819;28;20174;-70
2022/09/24 04:23:09;;;;;;;3.53;2.33;;;13.50;99.90;;;;;;5036842;28;20225;-69
2022/09/24 04:25:39;;;;;;;2.60;2.40;;;13.50;99.90;;;;;;5034781;28;20170;-71
2022/09/24 04:28:07;;;;;;;4.07;2.47;;;13.50;99.90;;;;;;5037147;28;20179;-70
2022/09/24 04:30:33;;;;;;;4.78;2.92;;;13.50;99.90;;;;;;5035934;28;20212;-69
2022/09/24 04:33:01;;;;;;;3.15;2.20;;;13.50;99.90;;;;;;5039481;28;20174;-70
2022/09/24 04:35:31;;;;;;;2.83;2.40;;;13.50;99.90;;;;;;5038239;28;20238;-71
2022/09/24 04:37:59;;;;;;;2.53;2.22;;;13.60;99.90;;;;;;5037761;28;20208;-71
2022/09/24 04:40:25;;;;;;;2.95;2.47;;;13.60;99.90;;;;;;5037973;28;20162;-70
2022/09/24 04:42:55;;;;;;;3.72;3.22;;;13.60;99.90;;;;;;5038452;28;20225;-71
2022/09/24 04:45:20;;;;;;;4.63;3.25;;;13.60;99.90;;;;;;5038752;28;20185;-70
2022/09/24 04:47:56;;;;;;;3.42;2.65;;;13.60;99.90;;;;;;5026373;28;20183;-71
2022/09/24 04:50:33;;;;;;;3.08;2.42;;;13.60;99.90;;;;;;5023461;28;20191;-71
2022/09/24 04:53:04;;;;;;;3.35;2.30;;;13.60;99.90;;;;;;5052593;28;20243;-70
2022/09/24 04:55:31;;;;;;;3.13;2.30;;;13.60;99.90;;;;;;5054533;28;20194;-71
2022/09/24 04:57:57;;;;;;;4.05;2.63;;;13.60;99.90;;;;;;5032979;28;20262;-70
2022/09/24 05:00:23;;;;;;;3.05;2.55;;;13.70;99.90;;;;;;5029486;28;20193;-70
2022/09/24 05:02:58;;;;;;;3.17;2.20;;;13.70;99.90;;;;;;5034125;28;20439;-71
2022/09/24 05:05:25;;;;;;;3.33;2.60;;;13.70;99.90;;;;;;5030321;28;20196;-70
2022/09/24 05:07:57;;;;;;;3.28;2.30;;;13.70;99.90;;;;;;5033380;28;20224;-69
2022/09/24 05:10:24;;;;;;;2.60;2.40;;;13.70;99.90;;;;;;5036118;28;20417;-70
2022/09/24 05:12:50;;;;;;;3.72;2.92;;;13.70;99.90;;;;;;5027509;28;20210;-71
2022/09/24 05:15:18;;;;;;;3.72;2.63;;;13.70;99.90;;;;;;5034559;28;20208;-70
2022/09/24 05:17:46;;;;;;;5.00;2.45;;;13.70;99.90;;;;;;5036370;28;20240;-71
2022/09/24 05:20:15;;;;;;;3.28;2.47;;;13.70;99.90;;;;;;5034657;28;20174;-70
2022/09/24 05:22:48;;;;;;;3.25;2.53;;;13.70;99.90;;;;;;5037300;28;20189;-71
2022/09/24 05:25:15;;;;;;;6.00;4.30;;;13.70;99.90;;;;;;5036398;28;20181;-71
2022/09/24 05:27:51;;;;;;;5.20;4.28;;;13.70;99.90;;;;;;5036395;28;20193;-71
2022/09/24 05:30:20;;;;;;;4.03;3.40;;;13.70;99.90;;;;;;5035714;28;20256;-70
2022/09/24 05:32:52;;;;;;;3.55;2.60;;;13.70;99.90;;;;;;5035889;28;20186;-69
2022/09/24 05:35:22;;;;;;;3.03;2.67;;;13.60;99.90;;;;;;5035713;28;20209;-71
2022/09/24 05:37:48;;;;;;;5.13;2.65;;;13.70;99.90;;;;;;5035511;28;20205;-71
2022/09/24 05:40:59;;;;;;;5.32;2.60;;;13.70;99.90;;;;;;5035675;28;20196;-71
2022/09/24 05:43:00;;;;;;;3.58;2.80;;;13.60;99.90;;;;;;5039562;28;20299;-71
2022/09/24 05:45:27;;;;;;;4.13;3.55;;;13.70;99.90;;;;;;5031966;28;20188;-72
2022/09/24 05:47:55;;;;;;;3.58;3.03;;;13.60;99.90;;;;;;5033058;28;20204;-71
2022/09/24 05:50:20;;;;;;;3.35;2.83;;;13.70;99.90;;;;;;5024721;28;20179;-71
2022/09/24 05:52:46;;;;;;;3.67;2.63;;;13.70;99.90;;;;;;5024936;28;20197;-71
2022/09/24 05:55:14;;;;;;;3.10;2.80;;;13.70;99.90;;;;;;5009048;28;20217;-71
2022/09/24 05:57:42;;;;;;;3.45;2.70;;;13.80;99.90;;;;;;5022274;28;20202;-71
2022/09/24 06:00:08;;;;;;;3.58;2.85;;;13.80;99.90;;;;;;5024366;28;20181;-71
2022/09/24 06:02:36;;;;;;;3.60;2.60;;;13.80;99.90;;;;;;5022005;28;20201;-71
2022/09/24 06:05:06;;;;;;;4.55;2.50;;;13.80;99.90;;;;;;5021418;28;20182;-70
2022/09/24 06:07:32;;;;;;;2.72;2.20;;;13.90;99.90;;;;;;5025002;28;20182;-71
2022/09/24 06:10:00;;;;;;;3.25;2.40;;;13.80;99.90;;;;;;5029050;28;20471;-71
2022/09/24 06:12:26;;;;;;;4.38;2.20;;;13.90;99.90;;;;;;5024335;28;20178;-71
2022/09/24 06:14:54;;;;;;;12.98;9.07;;;13.90;99.90;;;;;;5023554;28;20178;-71
2022/09/24 06:17:22;;;;;;;16.98;13.07;;;13.90;99.90;;;;;;5023079;28;20214;-71
2022/09/24 06:19:48;;;;;;;8.18;6.90;;;13.90;99.90;;;;;;5021604;28;20175;-71
2022/09/24 06:22:16;;;;;;;6.57;4.97;;;13.90;99.90;;;;;;5025055;28;20221;-71
2022/09/24 06:24:44;;;;;;;5.30;3.90;;;13.90;99.90;;;;;;5012374;28;20270;-71
2022/09/24 06:27:12;;;;;;;3.92;2.95;;;13.90;99.90;;;;;;5023241;28;20186;-71
2022/09/24 06:29:38;;;;;;;2.70;2.50;;;14.00;99.90;;;;;;5028609;28;20201;-71
2022/09/24 06:32:07;;;;;;;5.05;2.60;;;14.00;99.90;;;;;;5026884;28;20208;-71
2022/09/24 06:34:40;;;;;;;3.92;2.45;;;14.00;99.90;;;;;;5024092;28;20220;-72
2022/09/24 06:37:05;;;;;;;3.20;2.45;;;14.00;99.90;;;;;;5016607;28;20212;-71
2022/09/24 06:39:33;;;;;;;3.85;2.60;;;14.10;99.90;;;;;;5029783;28;20218;-70
2022/09/24 06:42:04;;;;;;;3.42;2.78;;;14.10;99.90;;;;;;5023512;28;20280;-71
2022/09/24 06:44:29;;;;;;;3.05;2.50;;;14.10;99.90;;;;;;5022562;28;20220;-72
2022/09/24 06:46:58;;;;;;;4.82;2.40;;;14.10;99.90;;;;;;5021924;28;20177;-69
2022/09/24 06:49:26;;;;;;;3.30;2.38;;;14.20;99.90;;;;;;5010761;28;20166;-70
2022/09/24 06:51:55;;;;;;;4.10;2.80;;;14.20;99.90;;;;;;5023409;28;20256;-71
2022/09/24 06:54:21;;;;;;;3.53;3.03;;;14.30;99.90;;;;;;5029034;28;20189;-71
2022/09/24 06:56:51;;;;;;;3.45;2.58;;;14.30;99.90;;;;;;5037327;28;20185;-71
2022/09/24 06:59:18;;;;;;;4.32;3.00;;;14.40;99.90;;;;;;5025285;28;20212;-71
2022/09/24 07:01:43;;;;;;;3.42;2.60;;;14.40;99.90;;;;;;5019414;28;20173;-71
2022/09/24 07:04:10;;;;;;;3.75;2.75;;;14.40;99.90;;;;;;5028344;28;20193;-69
2022/09/24 07:09:22;;;;;;;3.20;2.70;;;14.60;99.90;;;;;;5038037;28;20275;-71
2022/09/24 07:11:48;;;;;;;4.40;2.85;;;14.60;99.90;;;;;;5020779;28;20181;-71
2022/09/24 07:14:16;;;;;;;4.53;2.53;;;14.70;99.90;;;;;;5018422;28;20289;-72
2022/09/24 07:16:46;;;;;;;3.83;2.60;;;14.70;99.90;;;;;;5017549;28;20251;-71
2022/09/24 07:19:14;;;;;;;3.83;2.55;;;14.80;99.90;;;;;;5015916;28;20182;-70
2022/09/24 07:21:41;;;;;;;7.93;5.47;;;14.80;99.90;;;;;;5016895;28;20170;-70
2022/09/24 07:24:07;;;;;;;4.68;3.38;;;14.90;99.90;;;;;;5017995;28;20197;-72
2022/09/24 07:26:33;;;;;;;3.50;3.17;;;15.00;99.90;;;;;;5024032;28;20194;-72
2022/09/24 07:29:01;;;;;;;4.15;3.00;;;15.00;99.90;;;;;;5001519;28;20194;-71
2022/09/24 07:31:26;;;;;;;3.47;2.67;;;15.10;99.90;;;;;;5008479;28;20178;-72
2022/09/24 07:33:52;;;;;;;3.85;3.08;;;15.10;99.90;;;;;;5032518;28;20216;-70
2022/09/24 07:36:20;;;;;;;3.13;2.80;;;15.20;99.90;;;;;;5024741;28;20217;-72
2022/09/24 07:38:46;;;;;;;4.15;2.53;;;15.20;99.90;;;;;;5029328;28;20166;-70
2022/09/24 07:41:12;;;;;;;3.58;2.85;;;15.20;99.90;;;;;;5027143;28;20209;-71
2022/09/24 07:43:39;;;;;;;3.17;2.72;;;15.20;99.90;;;;;;5031572;28;20528;-70
2022/09/24 07:46:06;;;;;;;4.20;2.60;;;15.30;99.90;;;;;;5030380;28;20252;-72
2022/09/24 07:48:31;;;;;;;5.05;2.80;;;15.30;99.90;;;;;;5035461;28;20205;-71
2022/09/24 07:50:57;;;;;;;5.28;2.90;;;15.30;99.90;;;;;;5030948;28;20174;-70
2022/09/24 07:53:25;;;;;;;4.30;3.38;;;15.30;99.90;;;;;;5020636;28;20178;-71
2022/09/24 07:55:51;;;;;;;3.40;2.80;;;15.40;99.90;;;;;;5031249;28;20245;-72
2022/09/24 07:58:19;;;;;;;3.50;2.85;;;15.40;99.90;;;;;;5028266;28;20194;-72
2022/09/24 08:00:46;;;;;;;5.47;2.88;;;15.50;99.90;;;;;;5029431;28;20177;-68
2022/09/24 08:03:13;;;;;;;3.22;2.40;;;15.50;99.90;;;;;;5026736;28;20167;-72
2022/09/24 08:05:46;;;;;;;4.13;2.70;;;15.50;99.90;;;;;;5033440;28;20189;-70
2022/09/24 08:08:13;;;;;;;3.22;2.65;;;15.60;99.90;;;;;;5027748;28;20185;-71
2022/09/24 08:10:40;;;;;;;4.00;3.03;;;15.60;99.90;;;;;;5036103;28;20189;-69
2022/09/24 08:13:06;;;;;;;3.33;2.83;;;15.60;99.90;;;;;;5052957;28;20189;-70
2022/09/24 08:15:31;;;;;;;5.63;2.70;;;15.70;99.90;;;;;;5027934;28;20198;-70
2022/09/24 08:18:03;;;;;;;3.38;2.60;;;15.70;99.90;;;;;;5034341;28;20191;-71
2022/09/24 08:20:31;;;;;;;3.63;2.60;;;15.80;99.90;;;;;;5027641;28;20174;-71
2022/09/24 08:23:16;;;;;;;3.22;2.67;;;15.80;99.90;;;;;;5033698;28;20217;-69
2022/09/24 08:25:42;;;;;;;4.30;2.55;;;15.90;99.90;;;;;;5033329;28;20171;-69
2022/09/24 08:28:11;;;;;;;3.05;2.75;;;15.90;99.90;;;;;;5024919;28;20210;-71
2022/09/24 08:30:37;;;;;;;4.18;2.88;;;15.90;99.90;;;;;;5033475;28;20202;-71
2022/09/24 08:33:06;;;;;;;3.20;2.70;;;16.00;99.90;;;;;;5036685;28;20200;-71
2022/09/24 08:35:33;;;;;;;4.07;2.65;;;16.10;99.90;;;;;;5030368;28;20182;-70
2022/09/24 08:38:02;;;;;;;4.10;2.78;;;16.10;99.90;;;;;;5030740;28;20260;-71
2022/09/24 08:40:44;;;;;;;3.40;2.40;;;16.20;99.90;;;;;;5028022;28;20182;-71
2022/09/24 08:43:33;;;;;;;3.35;2.90;;;16.20;99.90;;;;;;5026826;28;20189;-71
2022/09/24 08:48:51;;;;;;;3.83;3.00;;;16.30;99.90;;;;;;5052622;28;20185;-73
2022/09/24 08:51:20;;;;;;;3.33;2.88;;;16.30;99.90;;;;;;5022849;28;20229;-72
2022/09/24 08:53:48;;;;;;;3.70;2.70;;;16.40;99.90;;;;;;5019804;28;20174;-71
2022/09/24 08:56:22;;;;;;;3.20;2.88;;;16.40;99.90;;;;;;5038045;28;20194;-72
2022/09/24 08:59:10;;;;;;;3.60;3.08;;;16.50;99.90;;;;;;5024600;28;20198;-72
2022/09/24 09:01:43;;;;;;;3.95;3.25;;;16.60;99.90;;;;;;5026935;28;20169;-69
2022/09/24 09:04:30;;;;;;;4.80;3.25;;;16.70;99.90;;;;;;5028671;28;20182;-70
2022/09/24 09:07:20;;;;;;;5.20;3.33;;;16.80;99.90;;;;;;5058506;28;20185;-72
2022/09/24 09:09:55;;;;;;;4.43;3.33;;;16.90;99.90;;;;;;5028527;28;20171;-72
2022/09/24 09:12:34;;;;;;;4.47;3.00;;;17.00;99.90;;;;;;5025368;28;20198;-72
2022/09/24 09:15:22;;;;;;;4.35;3.15;;;17.10;99.90;;;;;;5024860;28;20263;-73
2022/09/24 09:17:58;;;;;;;4.53;3.30;;;17.30;99.90;;;;;;5032773;28;20245;-73
2022/09/24 09:20:37;;;;;;;4.43;3.72;;;17.30;99.90;;;;;;5014560;28;20251;-72
2022/09/24 09:23:20;;;;;;;4.55;3.80;;;17.40;99.90;;;;;;5019088;28;20182;-72
2022/09/24 09:25:51;;;;;;;4.65;3.65;;;17.60;99.90;;;;;;5016974;28;20199;-71
2022/09/24 09:28:18;;;;;;;5.80;3.92;;;17.70;99.90;;;;;;5028399;28;20174;-70
2022/09/24 09:30:57;;;;;;;6.65;4.10;;;17.80;99.90;;;;;;5027175;28;20201;-69
2022/09/24 09:33:29;;;;;;;5.32;3.75;;;17.90;99.90;;;;;;5032000;28;20194;-69
2022/09/24 09:36:00;;;;;;;6.53;4.20;;;18.00;99.90;;;;;;5025339;28;20177;-70
2022/09/24 09:38:50;;;;;;;5.15;3.90;;;18.30;99.90;;;;;;5030427;28;20182;-70
2022/09/24 09:41:26;;;;;;;5.40;4.15;;;18.60;99.90;;;;;;5027761;28;20196;-70
2022/09/24 09:44:25;;;;;;;6.82;4.68;;;18.90;99.90;;;;;;5014628;28;20185;-72
2022/09/24 09:46:56;;;;;;;7.53;4.20;;;19.10;99.90;;;;;;5018504;28;20205;-70
2022/09/24 09:49:27;;;;;;;6.15;4.60;;;19.20;99.90;;;;;;5017610;28;20170;-72
2022/09/24 09:51:56;;;;;;;5.50;4.13;;;19.30;99.90;;;;;;5018788;28;20178;-72
2022/09/24 09:54:37;;;;;;;5.32;4.25;;;19.30;99.90;;;;;;5006125;28;20208;-72
2022/09/24 09:57:05;;;;;;;5.00;4.03;;;19.40;99.90;;;;;;5019179;28;20273;-72
2022/09/24 09:59:33;;;;;;;4.90;3.80;;;19.40;99.90;;;;;;5019119;28;20194;-71
2022/09/24 10:01:59;;;;;;;5.07;4.40;;;19.40;99.90;;;;;;5015458;28;20267;-70
2022/09/24 10:04:34;;;;;;;7.70;5.07;;;19.30;99.90;;;;;;5018086;28;20171;-70
2022/09/24 10:07:11;;;;;;;6.65;4.60;;;19.30;99.90;;;;;;5016008;28;20202;-71
2022/09/24 10:09:39;;;;;;;6.53;4.75;;;19.30;99.90;;;;;;5012053;28;20177;-72
2022/09/24 10:12:14;;;;;;;6.05;4.78;;;19.20;99.90;;;;;;5023710;28;20239;-71
2022/09/24 10:14:43;;;;;;;5.68;4.43;;;19.20;99.90;;;;;;5020681;28;20323;-70
2022/09/24 10:17:15;;;;;;;7.32;5.20;;;19.20;99.90;;;;;;5018330;28;20202;-70
2022/09/24 10:19:46;;;;;;;9.68;4.90;;;19.20;99.90;;;;;;5021130;28;20159;-72
2022/09/24 10:22:26;;;;;;;6.55;4.65;;;19.20;99.90;;;;;;5021277;28;20200;-72
2022/09/24 10:24:54;;;;;;;6.15;4.80;;;19.20;99.90;;;;;;5018860;28;20188;-71
2022/09/24 10:27:40;;;;;;;7.30;5.07;;;19.20;99.90;;;;;;5017286;28;20182;-72
2022/09/24 10:30:33;;;;;;;5.50;4.22;;;19.30;99.90;;;;;;5021395;28;20235;-72
2022/09/24 10:33:05;;;;;;;5.30;4.30;;;19.30;99.90;;;;;;5018092;28;20213;-71
2022/09/24 10:35:38;;;;;;;6.50;4.55;;;19.30;99.90;;;;;;5017166;28;20185;-70
2022/09/24 10:38:16;;;;;;;6.60;4.20;;;19.30;99.90;;;;;;5018415;28;20190;-72
2022/09/24 10:40:42;;;;;;;5.72;4.18;;;19.40;99.90;;;;;;5017763;28;20527;-73
2022/09/24 10:43:19;;;;;;;8.43;4.63;;;19.40;99.90;;;;;;5017922;28;20207;-72
2022/09/24 10:46:20;;;;;;;5.15;4.50;;;19.40;99.90;;;;;;5015991;28;20263;-72
2022/09/24 10:49:09;;;;;;;6.30;4.25;;;19.40;99.90;;;;;;5032686;28;20185;-71
2022/09/24 10:52:02;;;;;;;5.43;4.40;;;19.30;99.90;;;;;;5015845;28;20174;-73
2022/09/24 10:54:36;;;;;;;9.52;4.78;;;19.30;99.90;;;;;;5009875;28;20175;-72
2022/09/24 10:57:19;;;;;;;5.03;4.25;;;19.30;99.90;;;;;;5025333;28;20277;-72
2022/09/24 10:59:50;;;;;;;7.03;4.85;;;19.30;99.90;;;;;;5019511;28;20170;-72
2022/09/24 11:02:18;;;;;;;5.65;4.55;;;19.20;99.90;;;;;;5034102;28;20174;-72
2022/09/24 11:05:16;;;;;;;5.13;4.30;;;19.20;99.90;;;;;;5019311;28;20263;-72
2022/09/24 11:07:55;;;;;;;5.75;4.43;;;19.30;99.90;;;;;;5015430;28;20188;-72
2022/09/24 11:10:40;;;;;;;6.57;5.20;;;19.30;99.90;;;;;;5018911;28;20176;-71
2022/09/24 11:13:06;;;;;;;7.80;5.68;;;19.40;99.90;;;;;;5004336;28;20205;-71
2022/09/24 11:16:07;;;;;;;7.13;5.38;;;19.40;99.90;;;;;;5018449;28;20170;-72
2022/09/24 11:19:08;;;;;;;6.13;4.93;;;19.40;99.90;;;;;;5010990;28;20220;-71
2022/09/24 11:21:43;;;;;;;8.07;5.50;;;19.40;99.90;;;;;;4985063;28;20183;-71
2022/09/24 11:24:30;;;;;;;6.53;5.25;;;19.40;99.90;;;;;;5014675;28;20189;-72
2022/09/24 11:27:20;;;;;;;7.63;5.57;;;19.30;99.90;;;;;;4997774;28;20205;-72
2022/09/24 11:29:57;;;;;;;7.90;6.13;;;19.30;99.90;;;;;;5014843;28;20204;-72
2022/09/24 11:32:45;;;;;;;7.70;5.88;;;19.30;99.90;;;;;;5014162;28;20198;-71
2022/09/24 11:35:28;;;;;;;8.10;5.80;;;19.20;99.90;;;;;;5016227;28;20234;-73
2022/09/24 11:38:07;;;;;;;6.75;5.38;;;19.20;99.90;;;;;;5026523;28;20194;-71
2022/09/24 11:40:41;;;;;;;8.35;6.45;;;19.20;99.90;;;;;;5021082;28;20284;-70
2022/09/24 11:43:18;;;;;;;8.02;6.40;;;19.20;99.90;;;;;;5018658;28;20170;-72
2022/09/24 11:45:47;;;;;;;9.95;7.00;;;19.10;99.90;;;;;;5030417;28;20167;-71
2022/09/24 11:48:18;;;;;;;9.32;7.10;;;19.10;99.90;;;;;;5024299;28;20207;-70
2022/09/24 11:50:53;;;;;;;8.73;6.45;;;19.10;99.90;;;;;;5012695;28;20189;-71
2022/09/24 11:53:27;;;;;;;9.57;7.22;;;19.00;99.90;;;;;;5018527;28;20362;-71
2022/09/24 11:56:06;;;;;;;8.85;6.25;;;19.00;99.90;;;;;;5021018;28;20184;-71
2022/09/24 11:58:42;;;;;;;9.07;6.68;;;19.00;99.90;;;;;;5026468;28;20205;-72
2022/09/24 12:01:31;;;;;;;9.73;6.90;;;18.90;99.90;;;;;;5024709;28;20177;-68
2022/09/24 12:04:13;;;;;;;8.93;6.80;;;18.90;99.90;;;;;;5028623;28;20228;-71
2022/09/24 12:06:53;;;;;;;10.48;7.38;;;18.80;99.90;;;;;;5029176;28;20237;-68
2022/09/24 12:09:34;;;;;;;9.25;7.63;;;18.80;99.90;;;;;;5034608;28;20291;-71
2022/09/24 12:12:18;;;;;;;10.13;7.63;;;18.80;99.90;;;;;;5022950;28;20182;-68
2022/09/24 12:15:07;;;;;;;10.90;7.65;;;18.70;99.90;;;;;;5024325;28;20189;-72
2022/09/24 12:18:01;;;;;;;9.27;7.68;;;18.70;99.90;;;;;;5023963;28;20202;-69
2022/09/24 12:20:29;;;;;;;11.07;7.95;;;18.70;99.90;;;;;;5022573;28;20252;-70
2022/09/24 12:23:11;;;;;;;13.55;8.25;;;18.60;99.90;;;;;;5032888;28;20195;-71
2022/09/24 12:25:44;;;;;;;9.60;7.68;;;18.70;99.90;;;;;;5033364;28;20193;-71
2022/09/24 12:28:13;;;;;;;10.73;7.75;;;18.60;99.90;;;;;;5027202;28;20235;-70
2022/09/24 12:33:44;;;;;;;11.05;6.80;;;18.60;99.90;;;;;;5033055;28;20312;-68
2022/09/24 12:36:16;;;;;;;7.72;6.38;;;18.50;99.90;;;;;;5036733;28;20202;-70
2022/09/24 12:38:55;;;;;;;8.15;6.88;;;18.50;99.90;;;;;;5022415;28;20173;-71
2022/09/24 12:41:27;;;;;;;9.50;6.90;;;18.50;99.90;;;;;;5034137;28;20254;-70
2022/09/24 12:44:01;;;;;;;11.43;7.00;;;18.50;99.90;;;;;;5041845;28;20336;-70
2022/09/24 12:46:38;;;;;;;8.20;6.85;;;18.50;99.90;;;;;;5028066;28;20241;-66
2022/09/24 12:49:14;;;;;;;9.27;7.10;;;18.50;99.90;;;;;;5032806;28;20178;-69
2022/09/24 12:51:42;;;;;;;8.73;6.88;;;18.50;99.90;;;;;;5023823;28;20269;-69
2022/09/24 12:54:27;;;;;;;9.45;7.25;;;18.50;99.90;;;;;;5029203;28;20178;-66
2022/09/24 12:57:18;;;;;;;9.15;7.15;;;18.60;99.90;;;;;;5031257;28;20205;-70
2022/09/24 12:59:49;;;;;;;10.55;7.45;;;18.60;99.90;;;;;;5014803;28;20400;-70
2022/09/24 13:02:22;;;;;;;9.13;7.20;;;18.60;99.90;;;;;;5019127;28;20182;-71
2022/09/24 13:05:17;;;;;;;11.27;7.53;;;18.60;99.90;;;;;;5052671;28;20261;-70
2022/09/24 13:07:53;;;;;;;11.00;8.18;;;18.60;99.90;;;;;;4997765;28;20221;-71
2022/09/24 13:10:29;;;;;;;10.38;8.15;;;18.60;99.90;;;;;;5020504;28;20178;-71
2022/09/24 13:12:56;;;;;;;10.40;7.90;;;18.60;99.90;;;;;;5018936;28;20182;-72
2022/09/24 13:15:29;;;;;;;9.40;7.30;;;18.60;99.90;;;;;;5019428;28;20359;-72
2022/09/24 13:18:11;;;;;;;11.73;7.97;;;18.60;99.90;;;;;;5016904;28;20207;-70
2022/09/24 13:20:42;;;;;;;10.90;7.47;;;18.60;99.90;;;;;;5021295;28;20201;-70
2022/09/24 13:23:18;;;;;;;9.40;7.50;;;18.60;99.90;;;;;;5019795;28;20176;-67